Terminal Aerodrome Forecast
Issued by NWS

Home | Current Version | Previous Version | Graphics & Text | Print | Product List | Glossary On
Versions: 1 2 3 4 5 6 7 8 9 10 11 12 13 14 15 16 17 18
056
FTUS43 KMPX 160520
TAFAXN
TAF
KAXN 160520Z 1606/1706 32010KT P6SM OVC007
     FM161000 07005KT P6SM OVC015
     FM161400 13009KT P6SM OVC025
     FM161600 14013G21KT P6SM OVC040
     FM162100 14021G30KT P6SM BKN060=

USA.gov is the U.S. government's official web portal to all federal, state and local government web resources and services.